< < Back
Terminal Aerodrome Forecast


Current Version              Previous Versions:   1  2  3  4  5  6  7  8  9  

Terminal Aerodrome Forecast

888
FTUS42 KCAE 261500 AAC
TAFAGS
TAF AMD
KAGS 261547Z 2616/2712 33010KT P6SM BKN015 OVC080
     FM261700 32012G20KT P6SM BKN040
     FM262200 28006KT P6SM SCT060 SCT250
     FM270600 25007KT P6SM SKC=



Latest METAR

422
SAUS70 KWBC 261600 RRC
MTRAGS
METAR KAGS 261553Z VRB05KT 10SM BKN015 12/09 A3005 RMK AO2 SLP174
T01170089


USA.gov is the U.S. government's official web portal to all federal, state and local government web resources and services.